createdAt,value
2017-11-11T00:01:34.369Z,91.30
2017-11-11T00:04:02.194Z,91.30
2017-11-11T00:06:31.812Z,91.40
2017-11-11T00:09:01.963Z,91.30
2017-11-11T00:11:34.377Z,91.20
2017-11-11T00:14:02.712Z,91.20
2017-11-11T00:16:32.437Z,91.50
2017-11-11T00:19:04.521Z,91.90
2017-11-11T00:21:34.362Z,91.70
2017-11-11T00:24:05.312Z,91.70
2017-11-11T00:26:36.398Z,92.00
2017-11-11T00:31:42.554Z,91.80
2017-11-11T00:34:10.180Z,91.70
2017-11-11T00:36:37.900Z,91.70
2017-11-11T00:39:09.232Z,91.70
2017-11-11T00:41:39.250Z,91.40
2017-11-11T00:44:06.803Z,91.50
2017-11-11T00:46:36.251Z,91.30
2017-11-11T00:49:05.390Z,91.30
2017-11-11T00:51:35.765Z,91.30
2017-11-11T00:54:05.698Z,91.60
2017-11-11T00:56:35.454Z,91.80
2017-11-11T00:59:07.831Z,91.80
2017-11-11T01:01:35.861Z,91.20
2017-11-11T01:04:06.662Z,91.00
2017-11-11T01:06:35.896Z,91.10
2017-11-11T01:09:05.680Z,90.20
2017-11-11T01:11:34.809Z,90.30
2017-11-11T01:14:09.585Z,91.30
2017-11-11T01:16:43.298Z,91.30
2017-11-11T01:19:10.924Z,91.10
2017-11-11T01:21:40.490Z,91.20
2017-11-11T01:24:08.032Z,91.50
2017-11-11T01:26:35.829Z,91.50
2017-11-11T01:29:05.816Z,92.00
2017-11-11T01:31:36.815Z,91.90
2017-11-11T01:34:05.724Z,92.20
2017-11-11T01:36:36.407Z,91.90
2017-11-11T01:39:05.816Z,91.80
2017-11-11T01:41:36.460Z,92.00
2017-11-11T01:44:05.643Z,92.10
2017-11-11T01:46:38.039Z,92.20
2017-11-11T01:49:07.284Z,91.90
2017-11-11T01:51:36.939Z,91.80
2017-11-11T01:54:06.315Z,92.00
2017-11-11T01:56:34.875Z,92.40
2017-11-11T01:59:04.489Z,91.70
2017-11-11T02:01:34.498Z,91.40
2017-11-11T02:04:04.497Z,91.40
2017-11-11T02:06:34.081Z,91.70
2017-11-11T02:09:02.218Z,92.20
2017-11-11T02:11:33.118Z,92.50
2017-11-11T02:14:03.655Z,92.40
2017-11-11T02:16:31.402Z,92.40
2017-11-11T02:19:02.024Z,92.20
2017-11-11T02:21:31.335Z,92.00
2017-11-11T02:24:00.057Z,92.10
2017-11-11T02:26:31.184Z,92.20
2017-11-11T02:28:59.250Z,92.10
2017-11-11T02:31:32.041Z,92.60
2017-11-11T02:34:01.810Z,91.90
2017-11-11T02:36:31.731Z,92.10
2017-11-11T02:38:59.925Z,92.10
2017-11-11T02:41:30.494Z,91.80
2017-11-11T02:44:01.262Z,91.70
2017-11-11T02:46:31.639Z,91.90
2017-11-11T02:48:59.594Z,91.90
2017-11-11T02:51:30.025Z,92.00
2017-11-11T02:54:00.380Z,92.00
2017-11-11T02:56:31.424Z,92.00
2017-11-11T02:59:00.629Z,92.00
2017-11-11T03:01:33.342Z,92.20
2017-11-11T03:04:03.826Z,92.10
2017-11-11T03:06:33.909Z,92.10
2017-11-11T03:09:07.220Z,91.80
2017-11-11T03:11:36.147Z,91.70
2017-11-11T03:14:06.693Z,91.90
2017-11-11T03:16:36.536Z,91.90
2017-11-11T03:19:04.949Z,91.80
2017-11-11T03:21:33.574Z,91.90
2017-11-11T03:24:04.548Z,92.00
2017-11-11T03:26:34.957Z,91.90
2017-11-11T03:29:08.042Z,91.90
2017-11-11T03:31:36.113Z,91.70
2017-11-11T03:34:08.324Z,91.70
2017-11-11T03:36:36.078Z,91.80
2017-11-11T03:39:06.022Z,91.70
2017-11-11T03:41:35.608Z,91.80
2017-11-11T03:44:05.058Z,91.70
2017-11-11T03:46:35.017Z,91.60
2017-11-11T03:49:04.585Z,91.70
2017-11-11T03:51:33.878Z,91.40
2017-11-11T03:54:02.957Z,91.50
2017-11-11T03:56:34.325Z,91.40
2017-11-11T03:59:04.816Z,91.30
2017-11-11T04:01:34.845Z,91.40
2017-11-11T04:04:06.406Z,91.40
2017-11-11T04:06:35.116Z,91.20
2017-11-11T04:09:05.630Z,91.40
2017-11-11T04:11:35.622Z,91.60
2017-11-11T04:14:06.157Z,91.30
2017-11-11T04:16:35.722Z,91.40
2017-11-11T04:19:05.605Z,91.10
2017-11-11T04:21:36.740Z,91.00
2017-11-11T04:24:04.682Z,91.20
2017-11-11T04:26:32.725Z,91.40
2017-11-11T04:29:04.239Z,91.60
2017-11-11T04:31:35.025Z,91.20
2017-11-11T04:34:04.070Z,91.10
2017-11-11T04:36:32.297Z,91.20
2017-11-11T04:39:01.549Z,91.20
2017-11-11T04:41:29.975Z,91.10
2017-11-11T04:43:58.965Z,91.40
2017-11-11T04:46:28.986Z,91.20
2017-11-11T04:49:00.867Z,91.00
2017-11-11T04:51:33.012Z,91.00
2017-11-11T04:54:04.704Z,90.60
2017-11-11T04:56:35.832Z,90.40
2017-11-11T04:59:08.956Z,90.30
2017-11-11T05:01:37.745Z,90.90
2017-11-11T05:04:07.605Z,90.90
2017-11-11T05:06:37.033Z,91.10
2017-11-11T05:09:06.244Z,91.20
2017-11-11T05:11:38.904Z,91.00
2017-11-11T05:14:07.243Z,90.60
2017-11-11T05:16:35.788Z,90.60
2017-11-11T05:19:05.948Z,90.50
2017-11-11T05:21:35.149Z,90.20
2017-11-11T05:24:06.384Z,87.90
2017-11-11T05:26:35.773Z,87.80
2017-11-11T05:29:05.684Z,86.20
2017-11-11T05:31:35.155Z,86.30
2017-11-11T05:34:07.027Z,85.20
2017-11-11T05:36:35.816Z,85.20
2017-11-11T05:39:05.767Z,84.10
2017-11-11T05:41:36.256Z,84.40
2017-11-11T05:44:06.360Z,84.40
2017-11-11T05:46:35.524Z,83.80
2017-11-11T05:49:03.619Z,81.70
2017-11-11T05:51:37.124Z,82.30
2017-11-11T05:54:05.170Z,82.30
2017-11-11T05:56:35.868Z,82.00
2017-11-11T05:59:06.631Z,81.70
2017-11-11T06:01:36.033Z,81.60
2017-11-11T06:04:06.812Z,81.60
2017-11-11T06:06:36.053Z,82.30
2017-11-11T06:09:07.154Z,82.30
2017-11-11T06:11:36.542Z,81.80
2017-11-11T06:14:06.226Z,82.30
2017-11-11T06:16:35.623Z,82.20
2017-11-11T06:19:04.440Z,81.40
2017-11-11T06:21:33.081Z,81.40
2017-11-11T06:24:05.619Z,81.40
2017-11-11T06:26:35.976Z,81.60
2017-11-11T06:29:03.962Z,81.50
2017-11-11T06:31:35.210Z,83.30
2017-11-11T06:34:05.854Z,81.70
2017-11-11T06:36:36.311Z,81.40
2017-11-11T06:39:06.129Z,80.90
2017-11-11T06:41:36.528Z,80.40
2017-11-11T06:44:08.568Z,80.40
2017-11-11T06:46:41.364Z,80.90
2017-11-11T06:49:11.974Z,80.90
2017-11-11T06:51:39.550Z,80.50
2017-11-11T06:54:09.722Z,80.80
2017-11-11T06:56:40.424Z,79.70
2017-11-11T06:59:07.966Z,79.70
2017-11-11T07:01:38.009Z,80.10
2017-11-11T07:04:08.391Z,80.10
2017-11-11T07:06:36.697Z,80.20
2017-11-11T07:09:05.366Z,80.00
2017-11-11T07:11:34.134Z,80.00
2017-11-11T07:14:02.866Z,80.10
2017-11-11T07:16:32.886Z,81.00
2017-11-11T07:19:12.435Z,80.60
2017-11-11T07:21:40.835Z,80.60
2017-11-11T07:24:08.404Z,80.60
2017-11-11T07:26:35.927Z,79.60
2017-11-11T07:29:04.293Z,80.20
2017-11-11T07:31:32.181Z,80.20
2017-11-11T07:33:59.924Z,79.10
2017-11-11T07:36:27.689Z,80.10
2017-11-11T07:38:56.400Z,80.00
2017-11-11T07:41:24.368Z,78.60
2017-11-11T07:43:53.696Z,78.60
2017-11-11T07:46:22.080Z,79.20
2017-11-11T07:48:50.710Z,79.70
2017-11-11T07:51:19.371Z,80.00
2017-11-11T07:53:47.109Z,80.20
2017-11-11T07:56:14.641Z,80.10
2017-11-11T07:58:45.918Z,81.10
2017-11-11T08:01:14.832Z,80.90
2017-11-11T08:03:43.280Z,81.20
2017-11-11T08:06:10.848Z,80.70
2017-11-11T08:08:38.379Z,80.40
2017-11-11T08:11:08.878Z,80.70
2017-11-11T08:13:36.400Z,79.90
2017-11-11T08:16:05.213Z,79.80
2017-11-11T08:18:35.685Z,79.60
2017-11-11T08:21:03.276Z,79.60
2017-11-11T08:23:36.726Z,78.90
2017-11-11T08:26:05.285Z,78.70
2017-11-11T08:28:33.342Z,77.50
2017-11-11T08:31:01.598Z,77.80
2017-11-11T08:33:29.512Z,77.50
2017-11-11T08:35:59.412Z,77.70
2017-11-11T08:38:28.100Z,76.60
2017-11-11T08:40:56.315Z,78.30
2017-11-11T08:43:25.037Z,79.20
2017-11-11T08:45:56.251Z,79.40
2017-11-11T08:48:28.096Z,80.00
2017-11-11T08:50:56.791Z,81.00
2017-11-11T08:53:24.972Z,81.90
2017-11-11T08:55:59.788Z,82.60
2017-11-11T08:58:31.078Z,82.60
2017-11-11T09:01:01.373Z,82.80
2017-11-11T09:03:30.282Z,82.20
2017-11-11T09:05:58.926Z,82.20
2017-11-11T09:08:29.249Z,83.50
2017-11-11T09:10:59.018Z,83.80
2017-11-11T09:13:27.429Z,83.70
2017-11-11T09:15:57.696Z,85.10
2017-11-11T09:18:25.565Z,84.40
2017-11-11T09:20:54.870Z,84.90
2017-11-11T09:23:23.964Z,84.90
2017-11-11T09:25:51.704Z,84.90
2017-11-11T09:28:22.134Z,86.60
2017-11-11T09:30:51.726Z,84.40
2017-11-11T09:33:20.290Z,85.20
2017-11-11T09:35:47.981Z,86.20
2017-11-11T09:38:16.504Z,85.80
2017-11-11T09:40:44.815Z,87.70
2017-11-11T09:43:12.341Z,85.40
2017-11-11T09:45:39.900Z,86.60
2017-11-11T09:48:07.440Z,86.70
2017-11-11T09:50:35.765Z,87.40
2017-11-11T09:53:03.293Z,87.30
2017-11-11T09:55:31.742Z,87.60
2017-11-11T09:57:59.486Z,86.60
2017-11-11T10:00:28.219Z,87.70
2017-11-11T10:02:56.405Z,87.70
2017-11-11T10:05:25.125Z,87.60
2017-11-11T10:07:53.806Z,87.90
2017-11-11T10:10:24.266Z,88.90
2017-11-11T10:12:55.599Z,89.60
2017-11-11T10:15:26.215Z,88.90
2017-11-11T10:17:55.896Z,88.70
2017-11-11T10:20:24.987Z,88.80
2017-11-11T10:22:54.196Z,88.70
2017-11-11T10:25:23.333Z,89.20
2017-11-11T10:27:53.756Z,88.90
2017-11-11T10:30:22.670Z,88.90
2017-11-11T10:32:52.495Z,89.30
2017-11-11T10:35:23.039Z,90.30
2017-11-11T10:37:52.927Z,90.10
2017-11-11T10:40:22.493Z,89.30
2017-11-11T10:42:53.862Z,89.60
2017-11-11T10:45:22.571Z,90.10
2017-11-11T10:47:52.932Z,89.20
2017-11-11T10:50:23.348Z,89.40
2017-11-11T10:52:54.346Z,90.00
2017-11-11T10:55:25.712Z,89.60
2017-11-11T10:57:55.493Z,90.00
2017-11-11T11:00:26.326Z,90.30
2017-11-11T11:02:55.382Z,90.20
2017-11-11T11:05:25.873Z,89.60
2017-11-11T11:07:56.702Z,89.10
2017-11-11T11:10:26.048Z,89.10
2017-11-11T11:12:55.337Z,89.50
2017-11-11T11:15:27.470Z,89.90
2017-11-11T11:17:55.701Z,89.80
2017-11-11T11:20:27.494Z,90.00
2017-11-11T11:22:57.160Z,90.00
2017-11-11T11:25:26.122Z,90.00
2017-11-11T11:27:54.713Z,89.40
2017-11-11T11:30:24.415Z,89.00
2017-11-11T11:32:55.753Z,89.70
2017-11-11T11:35:25.887Z,89.60
2017-11-11T11:37:55.374Z,89.90
2017-11-11T11:40:26.150Z,90.00
2017-11-11T11:42:57.507Z,89.80
2017-11-11T11:45:27.200Z,90.00
2017-11-11T11:47:59.887Z,89.50
2017-11-11T11:50:27.933Z,89.50
2017-11-11T11:52:56.590Z,89.30
2017-11-11T11:55:26.140Z,89.30
2017-11-11T11:57:54.806Z,88.60
2017-11-11T12:00:23.728Z,89.20
2017-11-11T12:02:53.587Z,88.90
2017-11-11T12:05:24.904Z,90.00
2017-11-11T12:07:56.191Z,90.00
2017-11-11T12:10:25.958Z,89.50
2017-11-11T12:12:56.919Z,89.80
2017-11-11T12:15:27.611Z,89.50
2017-11-11T12:17:55.488Z,89.50
2017-11-11T12:20:25.085Z,89.40
2017-11-11T12:22:55.065Z,89.20
2017-11-11T12:25:24.471Z,89.70
2017-11-11T12:27:54.417Z,90.30
2017-11-11T12:30:24.489Z,90.20
2017-11-11T12:32:57.004Z,90.20
2017-11-11T12:35:25.716Z,90.20
2017-11-11T12:37:54.715Z,90.20
2017-11-11T12:40:23.956Z,90.20
2017-11-11T12:42:54.088Z,90.40
2017-11-11T12:45:26.178Z,90.50
2017-11-11T12:47:56.274Z,90.60
2017-11-11T12:50:25.509Z,90.30
2017-11-11T12:52:57.242Z,90.50
2017-11-11T12:55:27.132Z,90.50
2017-11-11T12:57:56.409Z,90.50
2017-11-11T13:00:27.636Z,90.90
2017-11-11T13:02:56.252Z,91.30
2017-11-11T13:05:25.926Z,91.00
2017-11-11T13:07:56.746Z,91.00
2017-11-11T13:10:25.089Z,91.00
2017-11-11T13:12:54.911Z,91.10
2017-11-11T13:15:27.303Z,91.00
2017-11-11T13:17:55.024Z,90.90
2017-11-11T13:20:25.389Z,91.10
2017-11-11T13:22:56.345Z,91.30
2017-11-11T13:25:29.490Z,91.80
2017-11-11T13:27:59.760Z,91.80
2017-11-11T13:30:29.002Z,91.60
2017-11-11T13:32:58.528Z,92.30
2017-11-11T13:35:31.388Z,92.10
2017-11-11T13:38:03.419Z,92.30
2017-11-11T13:40:33.599Z,92.30
2017-11-11T13:43:03.083Z,92.30
2017-11-11T13:45:32.615Z,91.50
2017-11-11T13:48:01.567Z,92.10
2017-11-11T13:50:29.518Z,92.00
2017-11-11T13:52:57.510Z,91.90
2017-11-11T13:55:25.416Z,91.90
2017-11-11T13:57:54.119Z,91.00
2017-11-11T14:00:23.036Z,91.90
2017-11-11T14:02:53.890Z,92.40
2017-11-11T14:05:22.174Z,92.40
2017-11-11T14:07:52.913Z,92.30
2017-11-11T14:10:21.835Z,92.50
2017-11-11T14:12:50.621Z,92.50
2017-11-11T14:15:20.216Z,92.50
2017-11-11T14:17:47.912Z,92.30
2017-11-11T14:20:15.737Z,92.30
2017-11-11T14:22:45.315Z,92.10
2017-11-11T14:25:13.882Z,92.10
2017-11-11T14:27:44.711Z,92.30
2017-11-11T14:30:13.125Z,92.20
2017-11-11T14:32:43.266Z,92.20
2017-11-11T14:35:11.038Z,92.40
2017-11-11T14:37:39.396Z,92.50
2017-11-11T14:40:06.968Z,92.50
2017-11-11T14:42:34.508Z,92.60
2017-11-11T14:45:02.077Z,92.20
2017-11-11T14:47:31.207Z,92.20
2017-11-11T14:50:01.341Z,92.20
2017-11-11T14:52:29.226Z,92.20
2017-11-11T14:54:57.136Z,92.40
2017-11-11T14:57:24.757Z,92.40
2017-11-11T14:59:55.430Z,92.40
2017-11-11T15:02:24.414Z,92.20
2017-11-11T15:04:54.340Z,92.00
2017-11-11T15:07:23.663Z,92.40
2017-11-11T15:09:57.914Z,92.20
2017-11-11T15:12:26.867Z,92.40
2017-11-11T15:14:55.372Z,92.40
2017-11-11T15:17:29.328Z,92.20
2017-11-11T15:19:58.641Z,92.00
2017-11-11T15:22:26.740Z,92.30
2017-11-11T15:24:54.954Z,92.10
2017-11-11T15:27:25.835Z,92.20
2017-11-11T15:29:57.699Z,91.90
2017-11-11T15:32:27.305Z,92.40
2017-11-11T15:34:57.614Z,91.80
2017-11-11T15:37:26.591Z,91.90
2017-11-11T15:39:57.329Z,91.90
2017-11-11T15:42:25.585Z,91.90
2017-11-11T15:44:54.538Z,91.70
2017-11-11T15:47:26.421Z,91.70
2017-11-11T15:49:55.397Z,91.70
2017-11-11T15:52:24.243Z,91.90
2017-11-11T15:54:55.180Z,91.90
2017-11-11T15:57:24.832Z,91.90
2017-11-11T15:59:55.313Z,92.00
2017-11-11T16:02:25.631Z,92.00
2017-11-11T16:04:56.368Z,92.10
2017-11-11T16:07:25.013Z,92.20
2017-11-11T16:09:55.271Z,92.00
2017-11-11T16:12:24.957Z,92.20
2017-11-11T16:14:54.896Z,92.30
2017-11-11T16:17:25.721Z,92.30
2017-11-11T16:19:59.109Z,92.10
2017-11-11T16:22:27.409Z,92.60
2017-11-11T16:24:56.941Z,92.20
2017-11-11T16:27:26.771Z,92.40
2017-11-11T16:29:56.632Z,92.40
2017-11-11T16:32:26.990Z,92.10
2017-11-11T16:34:55.929Z,91.90
2017-11-11T16:37:25.517Z,91.90
2017-11-11T16:39:56.421Z,92.60
2017-11-11T16:42:25.966Z,92.50
2017-11-11T16:44:56.553Z,92.50
2017-11-11T16:47:26.740Z,92.00
2017-11-11T16:49:56.726Z,91.60
2017-11-11T16:52:25.584Z,91.60
2017-11-11T16:54:54.915Z,92.50
2017-11-11T16:57:24.614Z,92.50
2017-11-11T16:59:54.614Z,91.90
2017-11-11T17:02:25.907Z,92.50
2017-11-11T17:04:55.765Z,92.50
2017-11-11T17:07:26.126Z,92.00
2017-11-11T17:09:57.671Z,91.90
2017-11-11T17:12:26.253Z,92.10
2017-11-11T17:14:57.913Z,92.10
2017-11-11T17:17:27.626Z,92.00
2017-11-11T17:19:58.439Z,92.20
2017-11-11T17:22:28.018Z,92.10
2017-11-11T17:24:57.027Z,92.10
2017-11-11T17:27:25.935Z,92.30
2017-11-11T17:29:55.896Z,92.40
2017-11-11T17:32:26.608Z,92.40
2017-11-11T17:34:55.544Z,92.50
2017-11-11T17:37:26.041Z,92.30
2017-11-11T17:39:56.017Z,92.20
2017-11-11T17:42:28.637Z,92.30
2017-11-11T17:44:56.912Z,92.40
2017-11-11T17:47:26.327Z,92.20
2017-11-11T17:49:56.041Z,92.40
2017-11-11T17:52:26.942Z,92.50
2017-11-11T17:54:56.126Z,92.50
2017-11-11T17:57:25.924Z,92.70
2017-11-11T17:59:58.217Z,92.90
2017-11-11T18:02:26.340Z,92.60
2017-11-11T18:04:56.059Z,92.60
2017-11-11T18:07:25.291Z,92.80
2017-11-11T18:09:55.411Z,92.70
2017-11-11T18:12:25.441Z,92.90
2017-11-11T18:14:55.717Z,92.80
2017-11-11T18:17:25.882Z,93.10
2017-11-11T18:19:55.368Z,93.10
2017-11-11T18:22:25.330Z,93.00
2017-11-11T18:24:55.532Z,93.00
2017-11-11T18:27:24.844Z,93.10
2017-11-11T18:29:56.553Z,93.10
2017-11-11T18:32:28.175Z,93.10
2017-11-11T18:34:57.957Z,93.10
2017-11-11T18:37:26.394Z,92.90
2017-11-11T18:39:56.237Z,92.90
2017-11-11T18:42:23.986Z,93.20
2017-11-11T18:44:54.661Z,94.70
2017-11-11T18:47:24.357Z,93.60
2017-11-11T18:49:54.027Z,93.00
2017-11-11T18:52:25.078Z,93.00
2017-11-11T18:54:54.601Z,93.20
2017-11-11T18:57:24.811Z,93.20
2017-11-11T18:59:54.333Z,93.00
2017-11-11T19:02:23.367Z,93.50
2017-11-11T19:04:51.722Z,93.80
2017-11-11T19:07:19.857Z,93.30
2017-11-11T19:09:47.457Z,93.50
2017-11-11T19:12:15.033Z,93.40
2017-11-11T19:14:42.567Z,93.60
2017-11-11T19:17:10.936Z,93.50
2017-11-11T19:19:39.360Z,93.90
2017-11-11T19:22:07.093Z,93.50
2017-11-11T19:24:34.780Z,93.70
2017-11-11T19:27:02.313Z,93.60
2017-11-11T19:29:30.071Z,93.60
2017-11-11T19:31:59.618Z,93.50
2017-11-11T19:34:28.311Z,93.70
2017-11-11T19:36:57.550Z,93.90
2017-11-11T19:39:26.831Z,93.80
2017-11-11T19:41:55.950Z,93.80
2017-11-11T19:44:23.614Z,93.80
2017-11-11T19:46:53.254Z,93.90
2017-11-11T19:49:24.010Z,93.80
2017-11-11T19:51:52.357Z,93.80
2017-11-11T19:54:24.480Z,93.80
2017-11-11T19:56:53.630Z,94.00
2017-11-11T19:59:22.344Z,94.70
2017-11-11T20:01:50.150Z,94.30
2017-11-11T20:04:19.877Z,94.50
2017-11-11T20:06:47.549Z,94.50
2017-11-11T20:09:15.457Z,94.40
2017-11-11T20:11:42.986Z,94.40
2017-11-11T20:14:10.544Z,94.30
2017-11-11T20:16:38.847Z,94.50
2017-11-11T20:19:06.417Z,94.40
2017-11-11T20:21:34.892Z,94.10
2017-11-11T20:24:03.234Z,94.10
2017-11-11T20:26:30.761Z,94.10
2017-11-11T20:29:03.951Z,94.10
2017-11-11T20:31:31.513Z,94.10
2017-11-11T20:33:59.166Z,94.10
2017-11-11T20:36:28.490Z,94.00
2017-11-11T20:38:58.178Z,94.00
2017-11-11T20:41:25.892Z,94.30
2017-11-11T20:43:54.652Z,95.00
2017-11-11T20:46:22.745Z,95.00
2017-11-11T20:48:50.734Z,94.90
2017-11-11T20:51:18.468Z,94.30
2017-11-11T20:53:46.161Z,94.30
2017-11-11T20:56:13.712Z,94.20
2017-11-11T20:58:42.078Z,94.40
2017-11-11T21:01:09.664Z,94.30
2017-11-11T21:03:37.206Z,94.40
2017-11-11T21:06:07.589Z,94.50
2017-11-11T21:08:41.348Z,94.70
2017-11-11T21:11:09.614Z,94.70
2017-11-11T21:13:39.185Z,94.70
2017-11-11T21:16:06.721Z,94.50
2017-11-11T21:18:34.260Z,94.70
2017-11-11T21:21:03.622Z,94.60
2017-11-11T21:23:31.593Z,94.70
2017-11-11T21:25:59.252Z,94.50
2017-11-11T21:28:27.676Z,94.60
2017-11-11T21:30:55.603Z,94.70
2017-11-11T21:33:24.515Z,94.70
2017-11-11T21:35:53.282Z,94.80
2017-11-11T21:38:23.059Z,94.90
2017-11-11T21:40:50.856Z,94.90
2017-11-11T21:43:18.532Z,94.90
2017-11-11T21:45:47.054Z,94.80
2017-11-11T21:48:14.609Z,95.00
2017-11-11T21:50:42.175Z,94.80
2017-11-11T21:53:09.751Z,95.00
2017-11-11T21:55:38.346Z,95.00
2017-11-11T21:58:05.889Z,94.80
2017-11-11T22:00:34.253Z,94.90
2017-11-11T22:03:01.794Z,94.90
2017-11-11T22:05:29.450Z,94.90
2017-11-11T22:07:57.841Z,95.10
2017-11-11T22:10:25.535Z,95.10
2017-11-11T22:12:53.211Z,95.10
2017-11-11T22:15:21.852Z,95.00
2017-11-11T22:17:49.479Z,95.00
2017-11-11T22:20:17.051Z,94.90
2017-11-11T22:22:44.634Z,95.10
2017-11-11T22:25:12.169Z,95.00
2017-11-11T22:27:40.536Z,95.60
2017-11-11T22:30:08.113Z,95.20
2017-11-11T22:32:35.728Z,95.20
2017-11-11T22:35:03.271Z,95.10
2017-11-11T22:37:31.609Z,95.20
2017-11-11T22:39:59.354Z,95.10
2017-11-11T22:42:28.707Z,95.10
2017-11-11T22:44:56.480Z,95.10
2017-11-11T22:47:25.029Z,95.20
2017-11-11T22:49:53.446Z,95.40
2017-11-11T22:52:21.121Z,95.40
2017-11-11T22:54:49.082Z,95.50
2017-11-11T22:57:18.150Z,95.40
2017-11-11T22:59:45.748Z,95.40
2017-11-11T23:02:14.808Z,95.30
2017-11-11T23:04:42.396Z,95.10
2017-11-11T23:07:09.932Z,95.50
2017-11-11T23:09:39.032Z,95.30
2017-11-11T23:12:07.328Z,95.30
2017-11-11T23:14:35.718Z,95.40
2017-11-11T23:17:04.017Z,95.30
2017-11-11T23:19:33.353Z,95.30
2017-11-11T23:22:00.884Z,95.30
2017-11-11T23:24:28.462Z,95.50
2017-11-11T23:26:56.065Z,95.40
2017-11-11T23:29:23.684Z,95.30
2017-11-11T23:31:51.488Z,95.40
2017-11-11T23:34:19.220Z,95.30
2017-11-11T23:36:47.675Z,95.40
2017-11-11T23:39:16.868Z,95.40
2017-11-11T23:41:44.428Z,95.40
2017-11-11T23:44:12.099Z,95.20
2017-11-11T23:46:39.899Z,95.30
2017-11-11T23:49:07.448Z,95.40
2017-11-11T23:51:35.024Z,95.40
2017-11-11T23:54:02.724Z,95.40
2017-11-11T23:56:31.876Z,96.30
2017-11-11T23:58:59.927Z,96.20
